createdAt,value
2023-05-24T00:01:59.830Z,101569.97
2023-05-24T00:04:30.348Z,101576.09
2023-05-24T00:06:58.179Z,101580.47
2023-05-24T00:09:24.689Z,101587.22
2023-05-24T00:11:51.123Z,101578.63
2023-05-24T00:14:17.612Z,101587.47
2023-05-24T00:16:44.157Z,101594.44
2023-05-24T00:19:11.358Z,101585.22
2023-05-24T00:21:38.511Z,101591.09
2023-05-24T00:24:05.069Z,101599.09
2023-05-24T00:26:31.514Z,101602.03
2023-05-24T00:28:57.929Z,101608.78
2023-05-24T00:31:24.356Z,101614.44
2023-05-24T00:33:50.774Z,101616.34
2023-05-24T00:36:17.493Z,101612.94
2023-05-24T00:38:43.914Z,101611.22
2023-05-24T00:41:11.534Z,101607.16
2023-05-24T00:43:38.206Z,101606.69
2023-05-24T00:46:33.160Z,101606.41
2023-05-24T00:49:01.414Z,101613.50
2023-05-24T00:51:28.201Z,101612.56
2023-05-24T00:53:55.457Z,101612.47
2023-05-24T00:56:24.063Z,101612.00
2023-05-24T00:58:54.678Z,101605.81
2023-05-24T01:01:25.608Z,101603.81
2023-05-24T01:03:55.275Z,101608.00
2023-05-24T01:06:21.940Z,101610.03
2023-05-24T01:09:08.158Z,101612.16
2023-05-24T01:12:12.295Z,101614.97
2023-05-24T01:15:10.320Z,101610.88
2023-05-24T01:17:46.328Z,101609.53
2023-05-24T01:20:17.054Z,101610.97
2023-05-24T01:22:46.262Z,101610.28
2023-05-24T01:25:18.197Z,101612.09
2023-05-24T01:27:45.190Z,101613.19
2023-05-24T01:30:12.423Z,101616.13
2023-05-24T01:32:39.002Z,101610.16
2023-05-24T01:35:06.101Z,101615.31
2023-05-24T01:37:32.569Z,101616.72
2023-05-24T01:39:59.670Z,101615.38
2023-05-24T01:42:30.795Z,101621.25
2023-05-24T01:45:19.737Z,101630.88
2023-05-24T01:48:18.790Z,101618.56
2023-05-24T01:50:58.891Z,101617.03
2023-05-24T01:53:32.732Z,101613.81
2023-05-24T01:56:02.168Z,101616.91
2023-05-24T01:58:29.995Z,101622.94
2023-05-24T02:00:57.602Z,101608.56
2023-05-24T02:03:24.058Z,101615.25
2023-05-24T02:05:50.647Z,101615.97
2023-05-24T02:08:17.142Z,101608.78
2023-05-24T02:10:43.801Z,101615.50
2023-05-24T02:13:10.547Z,101614.97
2023-05-24T02:15:37.093Z,101612.75
2023-05-24T02:18:04.281Z,101616.03
2023-05-24T02:20:31.324Z,101605.44
2023-05-24T02:22:58.434Z,101610.91
2023-05-24T02:25:25.026Z,101616.75
2023-05-24T02:27:52.090Z,101615.25
2023-05-24T02:30:19.152Z,101618.81
2023-05-24T02:32:46.486Z,101610.78
2023-05-24T02:35:13.238Z,101611.81
2023-05-24T02:37:39.807Z,101607.22
2023-05-24T02:40:07.067Z,101611.50
2023-05-24T02:42:33.538Z,101613.56
2023-05-24T02:45:00.002Z,101608.44
2023-05-24T02:47:29.160Z,101612.22
2023-05-24T02:49:56.857Z,101609.66
2023-05-24T02:52:23.426Z,101615.97
2023-05-24T02:54:50.188Z,101610.69
2023-05-24T02:57:16.690Z,101611.38
2023-05-24T02:59:43.551Z,101611.75
2023-05-24T03:02:10.104Z,101616.72
2023-05-24T03:04:36.602Z,101609.72
2023-05-24T03:07:03.324Z,101613.84
2023-05-24T03:09:30.014Z,101616.75
2023-05-24T03:11:56.436Z,101614.56
2023-05-24T03:14:24.804Z,101615.75
2023-05-24T03:16:51.642Z,101607.22
2023-05-24T03:19:18.167Z,101610.13
2023-05-24T03:21:44.670Z,101600.56
2023-05-24T03:24:13.104Z,101607.41
2023-05-24T03:26:40.696Z,101613.25
2023-05-24T03:29:07.226Z,101604.72
2023-05-24T03:31:33.777Z,101613.97
2023-05-24T03:34:00.290Z,101597.88
2023-05-24T03:36:28.033Z,101600.44
2023-05-24T03:38:55.216Z,101598.38
2023-05-24T03:41:21.642Z,101607.63
2023-05-24T03:43:48.070Z,101601.44
2023-05-24T03:46:14.539Z,101601.44
2023-05-24T03:48:40.994Z,101604.19
2023-05-24T03:51:09.208Z,101612.25
2023-05-24T03:53:35.666Z,101612.75
2023-05-24T03:56:02.175Z,101621.34
2023-05-24T03:58:28.607Z,101630.56
2023-05-24T04:00:55.041Z,101633.66
2023-05-24T04:03:21.634Z,101631.09
2023-05-24T04:05:48.220Z,101623.22
2023-05-24T04:08:15.037Z,101628.03
2023-05-24T04:10:42.194Z,101630.09
2023-05-24T04:13:08.953Z,101639.34
2023-05-24T04:15:36.111Z,101633.84
2023-05-24T04:18:03.375Z,101635.03
2023-05-24T04:20:30.029Z,101636.09
2023-05-24T04:22:56.676Z,101638.97
2023-05-24T04:25:23.306Z,101634.38
2023-05-24T04:27:50.243Z,101630.59
2023-05-24T04:30:17.069Z,101631.47
2023-05-24T04:32:47.441Z,101631.28
2023-05-24T04:35:14.285Z,101634.03
2023-05-24T04:37:40.973Z,101646.84
2023-05-24T04:40:08.616Z,101645.81
2023-05-24T04:42:35.619Z,101653.69
2023-05-24T04:45:02.299Z,101650.28
2023-05-24T04:47:28.948Z,101659.16
2023-05-24T04:49:55.412Z,101649.78
2023-05-24T04:52:22.016Z,101647.34
2023-05-24T04:54:49.476Z,101648.22
2023-05-24T04:57:16.036Z,101653.34
2023-05-24T04:59:42.663Z,101653.84
2023-05-24T05:02:09.214Z,101662.25
2023-05-24T05:04:35.760Z,101652.63
2023-05-24T05:07:03.676Z,101651.25
2023-05-24T05:09:30.463Z,101667.16
2023-05-24T05:11:56.968Z,101662.03
2023-05-24T05:14:23.438Z,101669.38
2023-05-24T05:16:49.994Z,101664.91
2023-05-24T05:19:16.540Z,101668.44
2023-05-24T05:21:43.068Z,101669.13
2023-05-24T05:24:09.604Z,101667.88
2023-05-24T05:26:36.098Z,101666.63
2023-05-24T05:29:03.710Z,101659.22
2023-05-24T05:31:30.826Z,101670.84
2023-05-24T05:33:57.265Z,101678.84
2023-05-24T05:36:23.705Z,101677.09
2023-05-24T05:38:50.135Z,101686.84
2023-05-24T05:41:16.570Z,101692.06
2023-05-24T05:43:42.997Z,101690.16
2023-05-24T05:46:11.137Z,101677.38
2023-05-24T05:48:37.707Z,101689.63
2023-05-24T05:51:04.179Z,101680.69
2023-05-24T05:53:30.702Z,101695.19
2023-05-24T05:55:57.126Z,101682.63
2023-05-24T05:58:23.531Z,101690.97
2023-05-24T06:00:50.100Z,101687.84
2023-05-24T06:03:16.836Z,101693.09
2023-05-24T06:05:43.371Z,101686.84
2023-05-24T06:08:09.886Z,101686.09
2023-05-24T06:10:36.376Z,101683.16
2023-05-24T06:13:03.900Z,101686.59
2023-05-24T06:15:30.720Z,101682.22
2023-05-24T06:17:57.337Z,101680.44
2023-05-24T06:20:23.828Z,101671.25
2023-05-24T06:22:50.744Z,101686.25
2023-05-24T06:25:19.185Z,101689.19
2023-05-24T06:27:45.790Z,101690.59
2023-05-24T06:30:13.590Z,101680.38
2023-05-24T06:32:40.281Z,101662.34
2023-05-24T06:35:07.951Z,101663.34
2023-05-24T06:37:34.754Z,101662.00
2023-05-24T06:40:01.418Z,101656.81
2023-05-24T06:42:29.731Z,101650.97
2023-05-24T06:44:56.169Z,101653.63
2023-05-24T06:47:22.765Z,101641.44
2023-05-24T06:49:49.969Z,101640.44
2023-05-24T06:52:16.655Z,101642.41
2023-05-24T06:54:43.198Z,101645.03
2023-05-24T06:57:09.671Z,101637.84
2023-05-24T06:59:36.203Z,101636.34
2023-05-24T07:02:04.227Z,101633.59
2023-05-24T07:04:31.090Z,101638.72
2023-05-24T07:06:58.226Z,101643.19
2023-05-24T07:09:24.805Z,101655.25
2023-05-24T07:11:52.809Z,101659.06
2023-05-24T07:14:19.451Z,101667.06
2023-05-24T07:16:46.737Z,101678.03
2023-05-24T07:19:13.712Z,101685.19
2023-05-24T07:21:40.282Z,101672.06
2023-05-24T07:24:06.976Z,101677.19
2023-05-24T07:26:33.587Z,101683.56
2023-05-24T07:29:00.147Z,101686.81
2023-05-24T07:31:27.368Z,101680.78
2023-05-24T07:33:53.872Z,101677.06
2023-05-24T07:36:21.341Z,101681.19
2023-05-24T07:38:47.889Z,101678.94
2023-05-24T07:41:14.615Z,101681.56
2023-05-24T07:43:41.102Z,101684.50
2023-05-24T07:46:07.579Z,101686.03
2023-05-24T07:48:34.044Z,101685.41
2023-05-24T07:51:00.880Z,101682.22
2023-05-24T07:53:27.361Z,101687.09
2023-05-24T07:55:54.060Z,101677.34
2023-05-24T07:58:20.574Z,101682.09
2023-05-24T08:00:47.076Z,101676.78
2023-05-24T08:03:14.734Z,101682.56
2023-05-24T08:05:41.693Z,101679.84
2023-05-24T08:08:08.389Z,101689.41
2023-05-24T08:10:34.911Z,101675.03
2023-05-24T08:13:01.500Z,101668.91
2023-05-24T08:15:28.053Z,101670.44
2023-05-24T08:17:54.816Z,101664.56
2023-05-24T08:20:21.516Z,101667.34
2023-05-24T08:22:48.660Z,101681.25
2023-05-24T08:25:15.951Z,101674.69
2023-05-24T08:27:42.581Z,101671.56
2023-05-24T08:30:09.448Z,101680.53
2023-05-24T08:32:36.499Z,101666.50
2023-05-24T08:35:17.607Z,101663.91
2023-05-24T08:37:46.084Z,101675.84
2023-05-24T08:40:12.818Z,101665.63
2023-05-24T08:42:39.843Z,101674.16
2023-05-24T08:45:11.609Z,101660.50
2023-05-24T08:47:39.012Z,101671.16
2023-05-24T08:50:07.069Z,101670.06
2023-05-24T08:52:34.308Z,101677.94
2023-05-24T08:55:01.890Z,101668.34
2023-05-24T08:57:28.715Z,101650.69
2023-05-24T08:59:57.890Z,101658.78
2023-05-24T09:02:24.522Z,101659.63
2023-05-24T09:04:53.136Z,101666.84
2023-05-24T09:07:23.616Z,101657.06
2023-05-24T09:09:57.044Z,101664.66
2023-05-24T09:12:36.400Z,101655.84
2023-05-24T09:15:06.940Z,101653.75
2023-05-24T09:17:35.093Z,101643.75
2023-05-24T09:20:02.391Z,101637.34
2023-05-24T09:22:30.808Z,101625.06
2023-05-24T09:24:58.799Z,101625.75
2023-05-24T09:27:25.277Z,101622.97
2023-05-24T09:29:51.859Z,101620.16
2023-05-24T09:32:24.619Z,101621.69
2023-05-24T09:34:57.333Z,101607.44
2023-05-24T09:37:30.687Z,101610.69
2023-05-24T09:39:58.912Z,101616.69
2023-05-24T09:42:28.634Z,101620.09
2023-05-24T09:45:02.143Z,101628.56
2023-05-24T09:47:33.350Z,101617.72
2023-05-24T09:50:00.995Z,101621.63
2023-05-24T09:52:27.978Z,101626.59
2023-05-24T09:54:54.826Z,101615.56
2023-05-24T09:57:25.145Z,101624.16
2023-05-24T09:59:52.442Z,101619.22
2023-05-24T10:02:22.972Z,101616.03
2023-05-24T10:04:59.318Z,101614.38
2023-05-24T10:07:26.759Z,101607.91
2023-05-24T10:09:53.700Z,101616.84
2023-05-24T10:12:23.090Z,101608.75
2023-05-24T10:14:51.058Z,101605.72
2023-05-24T10:17:17.640Z,101609.09
2023-05-24T10:19:44.904Z,101604.53
2023-05-24T10:22:14.111Z,101593.75
2023-05-24T10:24:46.473Z,101592.19
2023-05-24T10:27:18.416Z,101587.81
2023-05-24T10:30:07.022Z,101583.03
2023-05-24T10:32:39.139Z,101580.66
2023-05-24T10:35:07.627Z,101558.44
2023-05-24T10:37:34.376Z,101583.28
2023-05-24T10:40:01.194Z,101580.41
2023-05-24T10:42:31.440Z,101590.59
2023-05-24T10:44:57.998Z,101592.75
2023-05-24T10:47:28.631Z,101582.81
2023-05-24T10:49:59.122Z,101574.78
2023-05-24T10:52:36.159Z,101585.59
2023-05-24T10:55:10.533Z,101587.03
2023-05-24T10:57:38.372Z,101589.38
2023-05-24T11:00:34.529Z,101576.09
2023-05-24T11:03:10.817Z,101580.88
2023-05-24T11:05:46.848Z,101585.81
2023-05-24T11:08:13.687Z,101583.50
2023-05-24T11:10:44.027Z,101588.91
2023-05-24T11:13:10.906Z,101578.09
2023-05-24T11:15:37.515Z,101587.38
2023-05-24T11:18:08.505Z,101583.34
2023-05-24T11:20:36.332Z,101573.59
2023-05-24T11:23:04.178Z,101573.38
2023-05-24T11:25:32.984Z,101575.47
2023-05-24T11:28:01.387Z,101570.75
2023-05-24T11:30:27.955Z,101568.19
2023-05-24T11:32:55.072Z,101565.81
2023-05-24T11:35:23.121Z,101557.50
2023-05-24T11:37:50.663Z,101573.00
2023-05-24T11:40:18.139Z,101561.09
2023-05-24T11:42:44.611Z,101563.53
2023-05-24T11:45:11.376Z,101565.16
2023-05-24T11:47:38.573Z,101547.66
2023-05-24T11:50:06.983Z,101550.63
2023-05-24T11:52:33.488Z,101554.00
2023-05-24T11:55:00.006Z,101550.22
2023-05-24T11:57:40.692Z,101553.47
2023-05-24T12:00:11.383Z,101555.97
2023-05-24T12:02:40.309Z,101555.84
2023-05-24T12:05:09.790Z,101548.44
2023-05-24T12:07:40.682Z,101542.09
2023-05-24T12:10:08.236Z,101533.06
2023-05-24T12:12:45.204Z,101528.41
2023-05-24T12:15:12.824Z,101525.94
2023-05-24T12:17:39.371Z,101527.53
2023-05-24T12:20:06.735Z,101524.78
2023-05-24T12:22:33.361Z,101540.16
2023-05-24T12:24:59.825Z,101544.56
2023-05-24T12:27:31.179Z,101541.03
2023-05-24T12:30:06.949Z,101553.66
2023-05-24T12:32:33.402Z,101558.13
2023-05-24T12:34:59.828Z,101549.28
2023-05-24T12:37:30.232Z,101547.69
2023-05-24T12:39:56.725Z,101551.16
2023-05-24T12:42:24.063Z,101555.47
2023-05-24T12:44:53.060Z,101552.31
2023-05-24T12:47:19.689Z,101553.66
2023-05-24T12:49:46.996Z,101552.91
2023-05-24T12:52:13.791Z,101554.47
2023-05-24T12:54:40.491Z,101552.59
2023-05-24T12:57:07.010Z,101556.31
2023-05-24T12:59:33.741Z,101561.72
2023-05-24T13:02:00.711Z,101557.09
2023-05-24T13:04:28.053Z,101559.13
2023-05-24T13:06:55.467Z,101558.75
2023-05-24T13:09:23.292Z,101561.75
2023-05-24T13:11:50.302Z,101554.47
2023-05-24T13:14:18.138Z,101555.72
2023-05-24T13:16:44.828Z,101551.88
2023-05-24T13:19:12.418Z,101558.66
2023-05-24T13:21:39.271Z,101551.19
2023-05-24T13:24:06.896Z,101546.22
2023-05-24T13:26:38.143Z,101555.56
2023-05-24T13:31:37.267Z,101547.72
2023-05-24T13:34:04.233Z,101551.31
2023-05-24T13:36:35.092Z,101547.34
2023-05-24T13:39:14.845Z,101547.72
2023-05-24T13:44:29.515Z,101529.88
2023-05-24T13:46:56.607Z,101529.31
2023-05-24T13:47:41.322Z,101536.50
2023-05-24T13:49:23.163Z,101530.38
2023-05-24T13:51:50.120Z,101538.94
2023-05-24T13:54:17.525Z,101535.72
2023-05-24T13:56:45.027Z,101536.31
2023-05-24T13:59:14.662Z,101531.38
2023-05-24T14:01:42.209Z,101531.38
2023-05-24T14:04:08.740Z,101535.97
2023-05-24T14:06:37.702Z,101538.06
2023-05-24T14:09:07.964Z,101528.53
2023-05-24T14:11:35.006Z,101534.31
2023-05-24T14:16:31.897Z,101531.22
2023-05-24T14:18:58.487Z,101538.00
2023-05-24T14:21:26.909Z,101536.88
2023-05-24T14:23:53.778Z,101544.28
2023-05-24T14:26:22.012Z,101534.03
2023-05-24T14:28:48.505Z,101542.25
2023-05-24T14:31:15.118Z,101539.81
2023-05-24T14:33:41.571Z,101536.69
2023-05-24T14:36:08.572Z,101525.28
2023-05-24T14:38:35.054Z,101523.84
2023-05-24T14:41:01.673Z,101524.56
2023-05-24T14:43:28.335Z,101516.34
2023-05-24T14:45:54.957Z,101519.22
2023-05-24T14:48:21.478Z,101516.25
2023-05-24T14:50:48.075Z,101526.03
2023-05-24T14:53:14.984Z,101519.50
2023-05-24T14:55:43.453Z,101512.94
2023-05-24T14:58:14.080Z,101516.75
2023-05-24T15:00:42.590Z,101512.25
2023-05-24T15:03:11.355Z,101510.41
2023-05-24T15:05:38.789Z,101511.31
2023-05-24T15:08:07.038Z,101508.28
2023-05-24T15:10:33.644Z,101505.84
2023-05-24T15:13:01.249Z,101495.47
2023-05-24T15:15:28.436Z,101496.63
2023-05-24T15:17:54.894Z,101501.22
2023-05-24T15:20:21.457Z,101493.41
2023-05-24T15:22:47.907Z,101496.78
2023-05-24T15:25:14.422Z,101490.47
2023-05-24T15:27:41.017Z,101482.06
2023-05-24T15:30:07.987Z,101482.28
2023-05-24T15:32:34.427Z,101486.50
2023-05-24T15:35:01.277Z,101477.38
2023-05-24T15:37:27.837Z,101486.22
2023-05-24T15:39:54.425Z,101483.53
2023-05-24T15:42:21.731Z,101481.41
2023-05-24T15:44:48.308Z,101475.69
2023-05-24T15:47:14.794Z,101476.97
2023-05-24T15:49:41.277Z,101480.91
2023-05-24T15:52:07.985Z,101478.06
2023-05-24T15:54:34.561Z,101477.91
2023-05-24T15:57:01.867Z,101479.75
2023-05-24T15:59:28.884Z,101485.25
2023-05-24T16:01:55.531Z,101484.03
2023-05-24T16:04:22.028Z,101485.66
2023-05-24T16:06:49.225Z,101486.50
2023-05-24T16:09:16.056Z,101489.38
2023-05-24T16:11:42.558Z,101485.22
2023-05-24T16:14:10.291Z,101497.19
2023-05-24T16:16:36.953Z,101493.38
2023-05-24T16:19:03.543Z,101496.72
2023-05-24T16:21:30.064Z,101499.63
2023-05-24T16:23:56.496Z,101500.22
2023-05-24T16:26:22.940Z,101494.31
2023-05-24T16:28:50.165Z,101500.13
2023-05-24T16:31:16.706Z,101496.72
2023-05-24T16:33:43.160Z,101497.34
2023-05-24T16:36:09.706Z,101492.13
2023-05-24T16:38:37.417Z,101496.47
2023-05-24T16:41:06.018Z,101493.94
2023-05-24T16:43:33.009Z,101488.63
2023-05-24T16:46:00.892Z,101486.91
2023-05-24T16:48:31.479Z,101488.63
2023-05-24T16:50:58.668Z,101493.81
2023-05-24T16:53:26.801Z,101494.66
2023-05-24T16:55:54.692Z,101494.91
2023-05-24T16:58:22.326Z,101512.69
2023-05-24T17:00:49.118Z,101492.59
2023-05-24T17:03:16.026Z,101491.16
2023-05-24T17:05:43.489Z,101494.41
2023-05-24T17:08:09.992Z,101496.56
2023-05-24T17:10:36.597Z,101500.06
2023-05-24T17:13:03.043Z,101498.03
2023-05-24T17:15:29.498Z,101503.63
2023-05-24T17:17:56.252Z,101499.72
2023-05-24T17:20:23.000Z,101490.44
2023-05-24T17:22:49.654Z,101500.81
2023-05-24T17:25:16.406Z,101483.59
2023-05-24T17:27:42.843Z,101500.00
2023-05-24T17:30:09.957Z,101498.78
2023-05-24T17:32:36.671Z,101502.94
2023-05-24T17:35:03.795Z,101504.03
2023-05-24T17:37:30.468Z,101503.28
2023-05-24T17:39:57.002Z,101504.19
2023-05-24T17:42:24.934Z,101502.38
2023-05-24T17:44:51.486Z,101500.66
2023-05-24T17:47:18.517Z,101504.97
2023-05-24T17:49:45.178Z,101501.81
2023-05-24T17:52:14.494Z,101507.47
2023-05-24T17:54:41.285Z,101512.16
2023-05-24T17:57:07.954Z,101512.16
2023-05-24T17:59:34.414Z,101513.09
2023-05-24T18:02:00.933Z,101518.00
2023-05-24T18:04:27.412Z,101518.25
2023-05-24T18:06:54.714Z,101520.41
2023-05-24T18:09:21.552Z,101523.00
2023-05-24T18:11:48.164Z,101517.47
2023-05-24T18:14:14.783Z,101523.22
2023-05-24T18:16:41.486Z,101517.69
2023-05-24T18:19:08.132Z,101514.72
2023-05-24T18:21:34.752Z,101522.22
2023-05-24T18:24:01.268Z,101527.78
2023-05-24T18:26:28.034Z,101522.66
2023-05-24T18:28:54.537Z,101520.53
2023-05-24T18:31:21.889Z,101524.38
2023-05-24T18:33:48.705Z,101526.53
2023-05-24T18:36:15.278Z,101529.91
2023-05-24T18:38:42.630Z,101530.78
2023-05-24T18:41:12.301Z,101538.88
2023-05-24T18:43:39.445Z,101531.63
2023-05-24T18:46:06.003Z,101532.47
2023-05-24T18:48:32.474Z,101535.47
2023-05-24T18:50:58.931Z,101536.72
2023-05-24T18:53:25.934Z,101531.97
2023-05-24T18:55:52.500Z,101539.22
2023-05-24T18:58:18.965Z,101537.53
2023-05-24T19:00:45.613Z,101543.50
2023-05-24T19:03:13.332Z,101549.53
2023-05-24T19:05:43.325Z,101544.66
2023-05-24T19:08:10.654Z,101549.81
2023-05-24T19:10:37.164Z,101548.56
2023-05-24T19:13:03.677Z,101554.56
2023-05-24T19:15:30.150Z,101559.09
2023-05-24T19:17:57.857Z,101559.81
2023-05-24T19:20:24.458Z,101557.91
2023-05-24T19:22:50.972Z,101559.69
2023-05-24T19:25:17.506Z,101554.19
2023-05-24T19:27:55.124Z,101559.56
2023-05-24T19:30:25.519Z,101563.69
2023-05-24T19:32:52.064Z,101570.13
2023-05-24T19:35:18.695Z,101570.66
2023-05-24T19:37:45.252Z,101570.06
2023-05-24T19:40:11.804Z,101570.31
2023-05-24T19:42:38.301Z,101575.03
2023-05-24T19:45:05.364Z,101571.69
2023-05-24T19:47:31.932Z,101583.22
2023-05-24T19:49:58.439Z,101580.91
2023-05-24T19:52:24.968Z,101596.94
2023-05-24T19:54:51.422Z,101601.00
2023-05-24T19:57:17.852Z,101609.78
2023-05-24T19:59:44.356Z,101605.34
2023-05-24T20:02:10.807Z,101618.34
2023-05-24T20:04:41.799Z,101627.91
2023-05-24T20:07:08.874Z,101625.63
2023-05-24T20:09:35.828Z,101627.75
2023-05-24T20:12:02.691Z,101633.72
2023-05-24T20:14:31.513Z,101643.72
2023-05-24T20:16:59.008Z,101643.91
2023-05-24T20:19:27.907Z,101640.09
2023-05-24T20:21:54.455Z,101653.03
2023-05-24T20:24:21.004Z,101649.41
2023-05-24T20:26:47.542Z,101650.66
2023-05-24T20:29:14.250Z,101651.50
2023-05-24T20:31:41.369Z,101654.66
2023-05-24T20:34:08.014Z,101651.03
2023-05-24T20:36:34.483Z,101648.25
2023-05-24T20:39:00.932Z,101645.06
2023-05-24T20:41:30.351Z,101645.41
2023-05-24T20:43:56.865Z,101648.38
2023-05-24T20:46:23.496Z,101649.81
2023-05-24T20:48:50.734Z,101644.06
2023-05-24T20:51:18.665Z,101647.63
2023-05-24T20:53:45.940Z,101652.06
2023-05-24T20:56:12.426Z,101653.09
2023-05-24T20:58:41.138Z,101655.16
2023-05-24T21:01:08.347Z,101660.00
2023-05-24T21:03:34.889Z,101664.59
2023-05-24T21:06:01.401Z,101660.91
2023-05-24T21:08:27.843Z,101668.97
2023-05-24T21:10:55.732Z,101658.94
2023-05-24T21:13:22.504Z,101667.16
2023-05-24T21:15:50.516Z,101661.78
2023-05-24T21:18:17.111Z,101658.31
2023-05-24T21:20:43.608Z,101666.31
2023-05-24T21:23:10.680Z,101664.59
2023-05-24T21:25:37.258Z,101666.03
2023-05-24T21:28:03.775Z,101665.75
2023-05-24T21:30:30.710Z,101664.44
2023-05-24T21:32:57.181Z,101668.66
2023-05-24T21:35:23.613Z,101668.19
2023-05-24T21:37:50.115Z,101673.25
2023-05-24T21:40:16.672Z,101670.22
2023-05-24T21:42:44.254Z,101670.16
2023-05-24T21:45:11.168Z,101672.03
2023-05-24T21:47:37.756Z,101674.56
2023-05-24T21:50:05.290Z,101679.38
2023-05-24T21:52:31.797Z,101681.91
2023-05-24T21:54:58.268Z,101678.84
2023-05-24T21:57:26.487Z,101675.00
2023-05-24T21:59:53.123Z,101676.22
2023-05-24T22:02:19.767Z,101680.41
2023-05-24T22:04:46.338Z,101684.59
2023-05-24T22:07:13.859Z,101684.34
2023-05-24T22:09:40.399Z,101684.03
2023-05-24T22:12:06.961Z,101702.00
2023-05-24T22:14:33.430Z,101694.50
2023-05-24T22:16:59.896Z,101705.91
2023-05-24T22:19:39.897Z,101711.81
2023-05-24T22:22:08.427Z,101703.91
2023-05-24T22:24:34.936Z,101704.13
2023-05-24T22:27:02.564Z,101709.78
2023-05-24T22:29:29.149Z,101697.41
2023-05-24T22:31:55.719Z,101696.78
2023-05-24T22:34:28.997Z,101701.59
2023-05-24T22:36:57.170Z,101695.84
2023-05-24T22:39:23.908Z,101696.22
2023-05-24T22:41:51.631Z,101695.72
2023-05-24T22:44:18.044Z,101694.41
2023-05-24T22:46:44.524Z,101698.59
2023-05-24T22:49:13.415Z,101696.38
2023-05-24T22:51:44.111Z,101701.41
2023-05-24T22:54:14.012Z,101707.28
2023-05-24T22:56:40.428Z,101706.81
2023-05-24T22:59:07.453Z,101707.16
2023-05-24T23:01:34.298Z,101712.00
2023-05-24T23:04:11.961Z,101715.16
2023-05-24T23:06:45.612Z,101714.84
2023-05-24T23:09:15.164Z,101715.22
2023-05-24T23:11:42.868Z,101717.13
2023-05-24T23:14:11.381Z,101717.50
2023-05-24T23:16:40.180Z,101715.28
2023-05-24T23:19:06.933Z,101715.66
2023-05-24T23:21:33.765Z,101716.03
2023-05-24T23:24:02.147Z,101724.28
2023-05-24T23:26:28.836Z,101718.97
2023-05-24T23:28:55.470Z,101718.09
2023-05-24T23:31:22.278Z,101726.72
2023-05-24T23:33:48.762Z,101721.78
2023-05-24T23:36:15.312Z,101726.78
2023-05-24T23:38:41.790Z,101731.81
2023-05-24T23:41:08.341Z,101733.03
2023-05-24T23:43:34.961Z,101723.06
2023-05-24T23:46:01.468Z,101720.31
2023-05-24T23:48:27.890Z,101737.19
2023-05-24T23:50:54.935Z,101734.81
2023-05-24T23:53:21.819Z,101735.19
2023-05-24T23:55:48.335Z,101731.75
2023-05-24T23:58:14.756Z,101732.97
